TimeCST,TemperatureF,Dew PointF,Humidity,Sea Level PressureIn,VisibilityMPH,Wind Direction,Wind SpeedMPH,Gust SpeedMPH,PrecipitationIn,Events,Conditions,WindDirDegrees,DateUTC
12:53 AM,39.0,35.1,86,30.08,10.0,SW,5.8,-,N/A,,Clear,220,2012-11-20 06:53:00
2:53 AM,37.0,34.0,89,30.10,6.0,West,6.9,-,N/A,,Clear,270,2012-11-20 08:53:00
3:53 AM,35.1,33.1,92,30.12,5.0,WSW,5.8,-,N/A,,Clear,250,2012-11-20 09:53:00
4:53 AM,32.0,30.9,96,30.13,3.0,SSW,3.5,-,N/A,,Clear,210,2012-11-20 10:53:00
5:05 AM,30.2,30.2,100,30.10,2.0,SSW,4.6,-,N/A,,Clear,210,2012-11-20 11:05:00
5:53 AM,30.9,28.9,92,30.13,2.0,WSW,4.6,-,N/A,,Clear,240,2012-11-20 11:53:00
6:41 AM,30.2,28.4,93,30.10,0.8,Calm,Calm,-,N/A,,Mist,0,2012-11-20 12:41:00
6:51 AM,28.4,28.4,100,30.10,0.2,Calm,Calm,-,N/A,Fog,Light Freezing Fog,0,2012-11-20 12:51:00
6:53 AM,28.0,27.0,96,30.13,0.2,Calm,Calm,-,N/A,Fog,Light Freezing Fog,0,2012-11-20 12:53:00
7:00 AM,26.6,26.6,100,30.10,0.8,Calm,Calm,-,N/A,,Mist,0,2012-11-20 13:00:00
7:16 AM,26.6,24.8,93,30.12,0.2,Calm,Calm,-,N/A,Fog,Light Freezing Fog,0,2012-11-20 13:16:00
7:45 AM,28.4,26.6,93,30.13,0.5,West,3.5,-,N/A,Fog,Light Freezing Fog,270,2012-11-20 13:45:00
7:53 AM,30.0,28.0,92,30.17,0.5,Calm,Calm,-,N/A,Fog,Light Freezing Fog,0,2012-11-20 13:53:00
7:57 AM,30.2,28.4,93,30.14,1.2,Calm,Calm,-,N/A,,Partly Cloudy,0,2012-11-20 13:57:00
8:08 AM,30.2,30.2,100,30.15,2.0,Calm,Calm,-,N/A,,Clear,0,2012-11-20 14:08:00
8:18 AM,32.0,30.2,93,30.15,1.8,WNW,3.5,-,N/A,,Clear,300,2012-11-20 14:18:00
8:27 AM,33.8,32.0,93,30.16,3.0,NW,4.6,-,N/A,,Partly Cloudy,320,2012-11-20 14:27:00
8:41 AM,33.8,32.0,93,30.16,2.5,WNW,3.5,-,N/A,,Mostly Cloudy,300,2012-11-20 14:41:00
8:53 AM,35.1,34.0,96,30.19,1.2,NW,3.5,-,N/A,,Overcast,320,2012-11-20 14:53:00
9:02 AM,35.6,33.8,93,30.16,0.5,NW,3.5,-,N/A,Fog,Fog,310,2012-11-20 15:02:00
9:41 AM,37.4,35.6,93,30.16,1.5,Calm,Calm,-,N/A,,Overcast,0,2012-11-20 15:41:00
9:53 AM,36.0,35.1,97,30.19,2.0,Calm,Calm,-,N/A,,Overcast,0,2012-11-20 15:53:00
10:21 AM,37.4,35.6,93,30.15,3.0,East,3.5,-,N/A,,Overcast,90,2012-11-20 16:21:00
10:53 AM,37.9,36.0,93,30.20,3.0,Calm,Calm,-,N/A,,Overcast,0,2012-11-20 16:53:00
11:53 AM,37.9,36.0,93,30.18,3.0,Calm,Calm,-,N/A,,Overcast,0,2012-11-20 17:53:00
12:05 PM,37.4,35.6,93,30.15,2.5,Calm,Calm,-,N/A,,Overcast,0,2012-11-20 18:05:00
12:36 PM,39.2,35.6,87,30.15,3.0,Calm,Calm,-,N/A,,Overcast,0,2012-11-20 18:36:00
12:53 PM,39.0,36.0,89,30.18,3.0,Calm,Calm,-,N/A,,Overcast,0,2012-11-20 18:53:00
1:53 PM,37.9,36.0,93,30.17,3.0,Calm,Calm,-,N/A,,Overcast,0,2012-11-20 19:53:00
2:53 PM,37.9,35.1,89,30.15,3.0,Calm,Calm,-,N/A,,Overcast,0,2012-11-20 20:53:00
3:53 PM,37.9,35.1,89,30.17,4.0,WSW,3.5,-,N/A,,Overcast,250,2012-11-20 21:53:00
4:53 PM,37.0,35.1,93,30.17,4.0,Calm,Calm,-,N/A,,Overcast,0,2012-11-20 22:53:00
5:07 PM,37.4,35.6,93,30.13,2.0,Calm,Calm,-,N/A,,Overcast,0,2012-11-20 23:07:00
5:14 PM,37.4,35.6,93,30.13,1.2,Calm,Calm,-,N/A,,Overcast,0,2012-11-20 23:14:00
5:29 PM,37.4,35.6,93,30.13,2.0,Calm,Calm,-,N/A,,Overcast,0,2012-11-20 23:29:00
5:53 PM,37.0,35.1,93,30.16,2.5,South,3.5,-,N/A,,Overcast,180,2012-11-20 23:53:00
6:04 PM,35.6,35.6,100,30.12,1.5,Calm,Calm,-,N/A,,Overcast,0,2012-11-21 00:04:00
6:26 PM,35.6,35.6,100,30.13,0.2,SSE,3.5,-,N/A,Fog,Fog,150,2012-11-21 00:26:00
6:53 PM,36.0,35.1,97,30.15,0.2,Calm,Calm,-,N/A,Fog,Fog,0,2012-11-21 00:53:00
7:53 PM,35.1,34.0,96,30.13,0.2,Calm,Calm,-,N/A,Fog,Fog,0,2012-11-21 01:53:00
8:53 PM,34.0,34.0,100,30.12,0.2,Calm,Calm,-,N/A,Fog,Fog,0,2012-11-21 02:53:00
9:53 PM,33.1,32.0,96,30.13,0.2,Calm,Calm,-,N/A,Fog,Fog,0,2012-11-21 03:53:00
10:53 PM,32.0,30.9,96,30.13,0.2,Calm,Calm,-,N/A,Fog,Fog,0,2012-11-21 04:53:00
11:53 PM,30.0,28.0,92,30.10,0.2,Calm,Calm,-,N/A,Fog,Light Freezing Fog,0,2012-11-21 05:53:00